2019-07-10T01:37:58+02:00 GET /shop/termek/whitenergy-dell-latitude-e5500-07213/300040 HTTP/1.1
2019-07-10T01:38:00+02:00 GET /shop/termek/philips-sc199700-ipl-szortelenito-keszulek/1688684 HTTP/1.1
2019-07-10T01:50:38+02:00 GET /shop/termek/philips-hr287500-blendgo-mini-turmix/1688408 HTTP/1.1
2019-07-10T01:50:52+02:00 GET /shop/termek/philips-hr264240-viva-collection-promix-rudmixer/1689535 HTTP/1.1
2019-07-10T01:51:06+02:00 GET /shop/termek/philips-hr234519-viva-collection-tesztakeszito/1689527 HTTP/1.1
2019-07-10T01:51:15+02:00 GET /shop/termek/philips-gc214240-easyspeed-plus-gozolos-vasalo-basic-garancia/1709509 HTTP/1.1
2019-07-10T01:51:48+02:00 GET /shop/termek/philips-gc670920-fastcare-compact-gozallomas-vasalofej/1688552 HTTP/1.1
2019-07-10T01:52:05+02:00 GET /shop/termek/philips-gc875060-perfectcare-performer-gozallomas-vasalofej/1688846 HTTP/1.1
2019-07-10T01:52:09+02:00 GET /shop/termek/big-bobby-robogo-labbal-hajtos-motor-kek/1622407 HTTP/1.1
2019-07-10T01:52:21+02:00 GET /shop/termek/philips-fc972909-powerpro-expert-porzsak-nelkuli-porszivo-aaa-650-w/1688956 HTTP/1.1
2019-07-10T01:52:48+02:00 GET /shop/termek/philips-gc02410-ironcare-vasalohoz-valo-vizszuro-basic-garancia/1709527 HTTP/1.1
2019-07-10T01:53:02+02:00 GET /shop/termek/philips-gc214520-easyspeed-plus-gozolos-vasalo-kek-basic-garancia/1709464 HTTP/1.1
2019-07-10T01:53:27+02:00 GET /shop/termek/philips-gc299620-powerlife-gozolos-vasalo-2400-w/1688945 HTTP/1.1
2019-07-10T01:53:29+02:00 GET /shop/termek/karcher-se-5100-szonyegkarpittisztito/1541267 HTTP/1.1
2019-07-10T02:09:35+02:00 GET /shop/termek/philips-bt750015-beardtrimmer-series-7000-vakuumos-szakallvago/1689233 HTTP/1.1
2019-07-10T02:09:47+02:00 GET /shop/termek/philips-hp823300-hajszarito/1333160 HTTP/1.1
2019-07-10T02:09:49+02:00 GET /shop/termek/philips-hx697258-sonicare-flexcare-szonikus-elektromos-fogkefe/1689390 HTTP/1.1
2019-07-10T02:10:29+02:00 GET /shop/termek/philips-bg502015-bodygroom-series-5000-zuhanyzasbiztos-testszortelenito-basic-garancia/1664884 HTTP/1.1
2019-07-10T02:10:49+02:00 GET /shop/termek/philips-hx604433-sonicare-for-kids-standard-sonic-fogkefefej-4-db/1581583 HTTP/1.1
2019-07-10T02:11:21+02:00 GET /shop/termek/philips-hx911212-sonicare-flexcare-platinum-szonikus-elektromos-fogkefe-basic-garancia/1664916 HTTP/1.1
2019-07-10T02:11:21+02:00 GET /shop/termek/karcher-16734000-k-2-full-control-magasnyomasu-moso-basic-garancia/1597596 HTTP/1.1
2019-07-10T02:11:29+02:00 GET /shop/termek/philips-hd934201-avance-collection-vizforralo/1264177 HTTP/1.1
2019-07-10T02:11:33+02:00 GET /shop/termek/philips-hx919202-sonicare-flexcare-platinum-connected-szonikus-elektromos-fogkefe-alkalmazassal/1688654 HTTP/1.1
2019-07-10T02:17:43+02:00 GET /shop/termek/philips-hd441920-grillsuto/1390118 HTTP/1.1
2019-07-10T02:17:53+02:00 GET /shop/termek/philips-bhd00700-essentialcare-hajszarito-1800-w-ionos/1688537 HTTP/1.1
2019-07-10T02:18:12+02:00 GET /shop/termek/philips-hp820410-thermoprotect-hajszarito/1688470 HTTP/1.1
2019-07-10T02:18:43+02:00 GET /shop/termek/philips-hps92000-pro-ionos-hajszarito-2300-w/1688962 HTTP/1.1
2019-07-10T02:19:13+02:00 GET /shop/termek/philips-sc537010-visapure-advanced-visapure-advanced-kefes-arctisztitio-keszulek/1689485 HTTP/1.1
2019-07-10T02:19:39+02:00 GET /shop/termek/philips-sc625001-visacare-prestige-mikrodermabrazios-arckezelo-keszulek/1689483 HTTP/1.1
2019-07-10T02:20:05+02:00 GET /shop/termek/bosch-tda70easy-sensixxx-da70-easycomfort-gozolos-vasalo/1560854 HTTP/1.1
2019-07-10T02:20:06+02:00 GET /shop/termek/philips-fc837909-performer-compact-porzsakos-porszivo/1461209 HTTP/1.1